August 17, 2022

Time Code Weather Temp. Visibility Ceiling Wind METAR/SPECI
13:30
V
25 °C 10 km+ - 140° 140° 11 kt METAR FMEP 170930Z AUTO 14011KT CAVOK 25/17 Q1019 NOSIG
13:00
V
25 °C 10 km+ - 140° 140° 11 kt METAR FMEP 170900Z AUTO 14011KT CAVOK 25/16 Q1019 NOSIG
12:30
V
25 °C 10 km+ - 140° 140° 11 kt METAR FMEP 170830Z AUTO 14011KT CAVOK 25/17 Q1019 NOSIG
12:00
V
25 °C 10 km+ - 140° 140° 13 kt METAR FMEP 170800Z AUTO 14013KT CAVOK 25/16 Q1019 NOSIG
11:30
V
25 °C 10 km+ - 140° 140° 13 kt METAR FMEP 170730Z AUTO 14013KT CAVOK 25/16 Q1019 NOSIG
11:00
V
25 °C 10 km+ - 130° 130° 12 kt METAR FMEP 170700Z AUTO 13012KT CAVOK 25/16 Q1019 NOSIG
10:30
V
25 °C 10 km+ - 140° 140° 12 kt METAR FMEP 170630Z AUTO 14012KT CAVOK 25/16 Q1020 NOSIG
10:00
V
25 °C 10 km+ - 140° 140° 10 kt METAR FMEP 170600Z AUTO 14010KT CAVOK 25/15 Q1020 NOSIG
09:30
V
25 °C 10 km+ - 140° 140° 9 kt METAR FMEP 170530Z AUTO 14009KT CAVOK 25/14 Q1021 NOSIG
09:00
V
24 °C 10 km+ - 120° 120° 8 kt METAR FMEP 170500Z AUTO 12008KT 080V140 CAVOK 24/15 Q1021 NOSIG
08:30
V
23 °C 10 km+ - 100° 100° 5 kt METAR FMEP 170430Z AUTO 10005KT CAVOK 23/15 Q1021 NOSIG
08:00
V
23 °C 10 km+ - 060° 060° 6 kt METAR FMEP 170400Z AUTO 06006KT CAVOK 23/15 Q1021 NOSIG
07:30
V
21 °C 10 km+ - 060° 060° 12 kt METAR FMEP 170330Z AUTO 06012KT CAVOK 21/10 Q1020 NOSIG
07:00
V
21 °C 10 km+ - 040° 040° 8 kt METAR FMEP 170300Z AUTO 04008KT 010V070 CAVOK 21/10 Q1020 NOSIG
06:30
V
20 °C 10 km+ - 030° 030° 8 kt METAR FMEP 170230Z AUTO 03008KT CAVOK 20/10 Q1020 NOSIG
06:00
V
20 °C 10 km+ - 040° 040° 8 kt METAR FMEP 170200Z AUTO 04008KT CAVOK 20/10 Q1020
05:30
V
19 °C 10 km+ - 060° 060° 9 kt METAR FMEP 170130Z AUTO 06009KT CAVOK 19/10 Q1019
05:00
V
19 °C 10 km+ - 050° 050° 9 kt METAR FMEP 170100Z AUTO 05009KT CAVOK 19/10 Q1019
04:30
V
19 °C 10 km+ - 070° 070° 7 kt METAR FMEP 170030Z AUTO 07007KT 040V100 CAVOK 19/10 Q1019
04:00
V
20 °C 10 km+ - 030° 030° 9 kt METAR FMEP 170000Z AUTO 03009KT CAVOK 20/11 Q1019
03:30
V
20 °C 10 km+ - 030° 030° 9 kt METAR FMEP 162330Z AUTO 03009KT CAVOK 20/11 Q1019
03:00
V
19 °C 10 km+ - 010° 010° 4 kt METAR FMEP 162300Z AUTO 01004KT CAVOK 19/11 Q1019
02:30
V
20 °C 10 km+ - 040° 040° 8 kt METAR FMEP 162230Z AUTO 04008KT CAVOK 20/11 Q1019
02:00
V
20 °C 10 km+ - 030° 030° 9 kt METAR FMEP 162200Z AUTO 03009KT 9999 FEW068 20/11 Q1020
01:30
V
20 °C 10 km+ 6,800 ft 030° 030° 7 kt METAR FMEP 162130Z AUTO 03007KT 9999 BKN068 20/11 Q1020
01:00
V
20 °C 10 km+ - 030° 030° 8 kt METAR FMEP 162100Z AUTO 03008KT 9999 FEW066 20/11 Q1020
00:30
V
20 °C 10 km+ - 030° 030° 8 kt METAR FMEP 162030Z AUTO 03008KT CAVOK 20/12 Q1020
00:00
V
20 °C 10 km+ - 030° 030° 7 kt METAR FMEP 162000Z AUTO 03007KT CAVOK 20/12 Q1021

August 16, 2022

Time Code Weather Temp. Visibility Ceiling Wind METAR/SPECI
23:30
V
20 °C 10 km+ - 020° 020° 6 kt METAR FMEP 161930Z AUTO 02006KT CAVOK 20/12 Q1021
23:00
V
19 °C 10 km+ - 020° 020° 5 kt METAR FMEP 161900Z AUTO 02005KT CAVOK 19/13 Q1020
22:30
V
19 °C 10 km+ - 020° 020° 5 kt METAR FMEP 161830Z AUTO 02005KT CAVOK 19/12 Q1020
22:00
V
20 °C 10 km+ - 020° 020° 5 kt METAR FMEP 161800Z AUTO 02005KT CAVOK 20/13 Q1020
21:30
V
20 °C 10 km+ - 030° 030° 5 kt METAR FMEP 161730Z AUTO 03005KT CAVOK 20/13 Q1020
21:00
V
19 °C 10 km+ - 020° 020° 5 kt METAR FMEP 161700Z AUTO 02005KT CAVOK 19/14 Q1020 NOSIG
20:30
V
20 °C 10 km+ - 020° 020° 4 kt METAR FMEP 161630Z AUTO 02004KT CAVOK 20/14 Q1020 NOSIG
20:00
V
21 °C 10 km+ - 040° 040° 3 kt METAR FMEP 161600Z AUTO 04003KT CAVOK 21/15 Q1019 NOSIG
19:30
V
21 °C 10 km+ - 010° 010° 3 kt METAR FMEP 161530Z AUTO 01003KT CAVOK 21/15 Q1019 NOSIG
19:00
V
22 °C 10 km+ - Var 000° 0 kt METAR FMEP 161500Z AUTO 00000KT CAVOK 22/16 Q1019 NOSIG
18:30
V
22 °C 10 km+ - 280° 280° 3 kt METAR FMEP 161430Z AUTO 28003KT 9999 SCT062 22/16 Q1019 NOSIG
18:00
V
23 °C 10 km+ 6,000 ft 280° 280° 5 kt METAR FMEP 161400Z AUTO 28005KT 9999 BKN060 23/16 Q1019 NOSIG
17:30
V
24 °C 10 km+ 6,000 ft 270° 270° 6 kt METAR FMEP 161330Z AUTO 27006KT 9999 OVC060 24/16 Q1018 NOSIG
17:00
V
24 °C 10 km+ 5,800 ft 270° 270° 5 kt METAR FMEP 161300Z AUTO 27005KT 9999 BKN058 24/16 Q1018 NOSIG
16:30
V
24 °C 10 km+ 5,400 ft 250° 250° 6 kt METAR FMEP 161230Z AUTO 25006KT 9999 BKN054 24/16 Q1018 NOSIG
16:00
V
24 °C 10 km+ - 210° 210° 5 kt METAR FMEP 161200Z AUTO 21005KT 180V240 CAVOK 24/16 Q1018 NOSIG
15:30
V
25 °C 10 km+ - 210° 210° 5 kt METAR FMEP 161130Z AUTO 21005KT CAVOK 25/16 Q1018 NOSIG
15:00
V
25 °C 10 km+ - 170° 170° 5 kt METAR FMEP 161100Z AUTO 17005KT 140V200 9999 SCT066 25/15 Q1018 NOSIG
14:30
V
25 °C 10 km+ 6,800 ft 170° 170° 4 kt METAR FMEP 161030Z AUTO 17004KT 130V220 9999 BKN068 25/16 Q1018 NOSIG
14:00
V
25 °C 10 km+ 6,400 ft 200° 200° 5 kt METAR FMEP 161000Z AUTO 20005KT 160V230 9999 BKN064 25/16 Q1018 NOSIG
13:30
V
25 °C 10 km+ - 210° 210° 5 kt METAR FMEP 160930Z AUTO 21005KT 180V240 9999 FEW064 25/16 Q1019 NOSIG
13:00
V
26 °C 10 km+ - 220° 220° 6 kt METAR FMEP 160900Z AUTO 22006KT 190V260 CAVOK 26/17 Q1019 NOSIG
12:30
V
25 °C 10 km+ - 230° 230° 6 kt METAR FMEP 160830Z AUTO 23006KT 210V270 CAVOK 25/16 Q1019 NOSIG
12:00
V
25 °C 10 km+ - 230° 230° 8 kt METAR FMEP 160800Z AUTO 23008KT CAVOK 25/16 Q1019 NOSIG
11:30
V
25 °C 10 km+ - 230° 230° 8 kt METAR FMEP 160730Z AUTO 23008KT CAVOK 25/17 Q1020 NOSIG
11:00
V
25 °C 10 km+ - 240° 240° 8 kt METAR FMEP 160700Z AUTO 24008KT CAVOK 25/16 Q1020 NOSIG
10:30
V
25 °C 10 km+ - 250° 250° 7 kt METAR FMEP 160630Z AUTO 25007KT CAVOK 25/14 Q1020 NOSIG
10:00
V
24 °C 10 km+ - 250° 250° 5 kt METAR FMEP 160600Z AUTO 25005KT CAVOK 24/15 Q1021 NOSIG
09:30
V
25 °C 10 km+ - 260° 260° 5 kt METAR FMEP 160530Z AUTO 26005KT CAVOK 25/13 Q1020 NOSIG
09:00
V
25 °C 10 km+ - 050° 050° 4 kt METAR FMEP 160500Z AUTO 05004KT 010V070 CAVOK 25/12 Q1020 NOSIG
08:30
V
23 °C 10 km+ - 030° 030° 7 kt METAR FMEP 160430Z AUTO 03007KT CAVOK 23/12 Q1020 NOSIG
08:00
V
22 °C 10 km+ - 030° 030° 7 kt METAR FMEP 160400Z AUTO 03007KT 360V070 CAVOK 22/11 Q1019 NOSIG
07:30
V
20 °C 10 km+ - 030° 030° 8 kt METAR FMEP 160330Z AUTO 03008KT CAVOK 20/11 Q1019 NOSIG
07:00
V
19 °C 10 km+ - 030° 030° 7 kt METAR FMEP 160300Z AUTO 03007KT CAVOK 19/11 Q1019 NOSIG
06:30
V
19 °C 10 km+ - 030° 030° 8 kt METAR FMEP 160230Z AUTO 03008KT CAVOK 19/11 Q1019 NOSIG
06:00
V
19 °C 10 km+ - 020° 020° 6 kt METAR FMEP 160200Z AUTO 02006KT CAVOK 19/11 Q1018
05:30
V
19 °C 10 km+ - 030° 030° 9 kt METAR FMEP 160130Z AUTO 03009KT CAVOK 19/11 Q1018
05:00
V
19 °C 10 km+ - 020° 020° 7 kt METAR FMEP 160100Z AUTO 02007KT CAVOK 19/11 Q1019
04:30
V
19 °C 10 km+ - 020° 020° 6 kt METAR FMEP 160030Z AUTO 02006KT CAVOK 19/11 Q1019
04:00
V
20 °C 10 km+ - 030° 030° 9 kt METAR FMEP 160000Z AUTO 03009KT CAVOK 20/12 Q1019
03:30
V
19 °C 10 km+ - 020° 020° 6 kt METAR FMEP 152330Z AUTO 02006KT CAVOK 19/12 Q1019
03:00
V
19 °C 10 km+ - 020° 020° 5 kt METAR FMEP 152300Z AUTO 02005KT 350V050 CAVOK 19/12 Q1019
02:30
V
19 °C 10 km+ - 020° 020° 6 kt METAR FMEP 152230Z AUTO 02006KT CAVOK 19/13 Q1019
02:00
V
19 °C 10 km+ - 020° 020° 7 kt METAR FMEP 152200Z AUTO 02007KT 340V040 CAVOK 19/13 Q1019
01:30
V
19 °C 10 km+ - 020° 020° 5 kt METAR FMEP 152130Z AUTO 02005KT CAVOK 19/13 Q1020
01:00
V
19 °C 10 km+ - 020° 020° 6 kt METAR FMEP 152100Z AUTO 02006KT CAVOK 19/14 Q1020
00:30
V
19 °C 10 km+ - 010° 010° 6 kt METAR FMEP 152030Z AUTO 01006KT CAVOK 19/14 Q1020
00:00
V
19 °C 10 km+ - 010° 010° 5 kt METAR FMEP 152000Z AUTO 01005KT CAVOK 19/14 Q1020

August 15, 2022

Time Code Weather Temp. Visibility Ceiling Wind METAR/SPECI
23:30
V
19 °C 10 km+ - 010° 010° 5 kt METAR FMEP 151930Z AUTO 01005KT CAVOK 19/14 Q1020
23:00
V
19 °C 10 km+ - 360° 360° 6 kt METAR FMEP 151900Z AUTO 36006KT CAVOK 19/14 Q1020
22:30
V
19 °C 10 km+ - 360° 360° 7 kt METAR FMEP 151830Z AUTO 36007KT CAVOK 19/14 Q1021
22:00
V
19 °C 10 km+ - 360° 360° 6 kt METAR FMEP 151800Z AUTO 36006KT CAVOK 19/14 Q1021
21:30
V
19 °C 10 km+ - 030° 030° 3 kt METAR FMEP 151730Z AUTO 03003KT CAVOK 19/14 Q1021
21:00
V
20 °C 10 km+ - 040° 040° 4 kt METAR FMEP 151700Z AUTO 04004KT CAVOK 20/14 Q1021
20:30
V
21 °C 10 km+ - 050° 050° 4 kt METAR FMEP 151630Z AUTO 05004KT 020V080 9999 FEW062 21/15 Q1021
20:00
V
21 °C 10 km+ 6,400 ft 070° 070° 4 kt METAR FMEP 151600Z AUTO 07004KT 9999 BKN064 21/15 Q1021
19:30
V
22 °C 10 km+ 6,000 ft Var 000° 0 kt METAR FMEP 151530Z AUTO 00000KT 9999 OVC060 22/15 Q1020
19:00
V
22 °C 10 km+ 6,200 ft Var 000° 0 kt METAR FMEP 151500Z AUTO 00000KT 9999 OVC062 22/15 Q1020 NOSIG
18:30
V
22 °C 10 km+ 6,000 ft Var 000° 0 kt METAR FMEP 151430Z AUTO 00000KT 9999 OVC060 22/15 Q1020 NOSIG
18:00
V
23 °C 10 km+ 5,800 ft 290° 290° 4 kt METAR FMEP 151400Z AUTO 29004KT 9999 OVC058 23/15 Q1019 NOSIG
17:30
V
23 °C 10 km+ 5,800 ft 300° 300° 4 kt METAR FMEP 151330Z AUTO 30004KT 280V340 9999 BKN058 23/15 Q1019 NOSIG
17:00
V
23 °C 10 km+ 5,600 ft 300° 300° 6 kt METAR FMEP 151300Z AUTO 30006KT 270V330 9999 BKN056 23/15 Q1019 NOSIG
16:30
V
24 °C 10 km+ 5,600 ft 290° 290° 7 kt METAR FMEP 151230Z AUTO 29007KT 9999 BKN056 24/16 Q1019 NOSIG
16:00
V
24 °C 10 km+ 5,600 ft 320° 320° 6 kt METAR FMEP 151200Z AUTO 32006KT 9999 OVC056 24/15 Q1019 NOSIG
15:30
V
25 °C 10 km+ 5,600 ft 310° 310° 6 kt METAR FMEP 151130Z AUTO 31006KT 280V340 9999 OVC056 25/14 Q1019 NOSIG
15:00
V
25 °C 10 km+ 5,600 ft 300° 300° 5 kt METAR FMEP 151100Z AUTO 30005KT 270V340 9999 OVC056 25/14 Q1019 NOSIG
14:30
V
24 °C 10 km+ 5,600 ft 240° 240° 4 kt METAR FMEP 151030Z AUTO 24004KT 200V330 9999 OVC056 24/16 Q1019 NOSIG
14:00
V
24 °C 10 km+ 5,400 ft 210° 210° 3 kt METAR FMEP 151000Z AUTO 21003KT 170V260 9999 OVC054 24/15 Q1019 NOSIG
Older data

We and third parties follow your internet behavior on our website with cookies. If you continue, we assume you agree with our cookie policy. Learn more